Time;durP1;ratioP1;P1;durP2;ratioP2;P2;SDS_P1;SDS_P2;PMS_P1;PMS_P2;Temp;Humidity;BMP_temperature;BMP_pressure;BME280_temperature;BME280_humidity;BME280_pressure;Samples;Min_cycle;Max_cycle;Signal;HPM_P1;HPM_P2
2023/04/28 00:01:07;;;;;;;26.87;11.50;;;;;;;;;;5069666;28;20066;-61
2023/04/28 00:03:33;;;;;;;20.47;10.97;;;;;;;;;;5065315;28;20044;-60
2023/04/28 00:05:59;;;;;;;17.17;11.27;;;;;;;;;;5049232;28;20049;-61
2023/04/28 00:08:26;;;;;;;17.50;12.03;;;;;;;;;;5049519;28;20049;-61
2023/04/28 00:10:52;;;;;;;18.90;10.83;;;;;;;;;;5049287;28;20546;-61
2023/04/28 00:13:18;;;;;;;16.33;11.83;;;;;;;;;;5048734;28;20048;-61
2023/04/28 00:15:44;;;;;;;16.00;11.00;;;;;;;;;;5049772;28;20052;-61
2023/04/28 00:18:10;;;;;;;17.20;11.03;;;;;;;;;;5048573;28;20114;-61
2023/04/28 00:20:43;;;;;;;14.63;10.93;;;;;;;;;;5069393;28;20056;-62
2023/04/28 00:23:09;;;;;;;23.08;11.32;;;;;;;;;;5049128;28;20059;-60
2023/04/28 00:25:35;;;;;;;20.87;11.07;;;;;;;;;;5049310;28;20166;-59
2023/04/28 00:28:01;;;;;;;19.67;11.77;;;;;;;;;;5049013;28;20372;-59
2023/04/28 00:30:29;;;;;;;16.37;11.33;;;;;;;;;;5048894;28;20061;-59
2023/04/28 00:32:55;;;;;;;21.47;13.50;;;;;;;;;;5049444;28;20066;-59
2023/04/28 00:35:21;;;;;;;17.20;11.43;;;;;;;;;;5048935;28;20419;-60
2023/04/28 00:37:47;;;;;;;15.50;10.47;;;;;;;;;;5049144;28;20098;-60
2023/04/28 00:40:14;;;;;;;18.80;12.17;;;;;;;;;;5048898;28;20040;-59
2023/04/28 00:42:40;;;;;;;21.23;12.07;;;;;;;;;;5049332;28;20041;-59
2023/04/28 00:45:07;;;;;;;22.70;11.67;;;;;;;;;;5048613;28;20091;-59
2023/04/28 00:47:33;;;;;;;19.40;11.70;;;;;;;;;;5063115;28;20052;-59
2023/04/28 00:50:04;;;;;;;17.83;10.57;;;;;;;;;;5049001;28;20088;-59
2023/04/28 00:52:31;;;;;;;16.53;11.50;;;;;;;;;;5048682;28;20056;-59
2023/04/28 00:54:57;;;;;;;14.53;10.60;;;;;;;;;;5048788;28;20044;-60
2023/04/28 00:57:23;;;;;;;18.17;11.70;;;;;;;;;;5057435;28;20124;-59
2023/04/28 00:59:49;;;;;;;17.10;11.93;;;;;;;;;;5056225;28;20040;-62
2023/04/28 01:02:17;;;;;;;17.10;11.10;;;;;;;;;;5058361;28;20525;-63
2023/04/28 01:04:46;;;;;;;17.70;10.30;;;;;;;;;;5048822;28;20076;-62
2023/04/28 01:07:12;;;;;;;15.77;11.63;;;;;;;;;;5062050;28;20048;-60
2023/04/28 01:09:38;;;;;;;18.23;11.07;;;;;;;;;;5068805;28;20049;-59
2023/04/28 01:12:04;;;;;;;14.47;10.73;;;;;;;;;;5068589;28;20044;-59
2023/04/28 01:14:31;;;;;;;20.50;10.70;;;;;;;;;;5068334;28;20497;-59
2023/04/28 01:16:57;;;;;;;20.67;11.63;;;;;;;;;;5066877;28;20375;-59
2023/04/28 01:19:23;;;;;;;15.53;10.77;;;;;;;;;;5068545;28;20029;-59
2023/04/28 01:21:49;;;;;;;17.13;10.83;;;;;;;;;;5068798;28;20076;-59
2023/04/28 01:24:16;;;;;;;15.67;11.07;;;;;;;;;;5058800;28;20063;-59
2023/04/28 01:26:42;;;;;;;18.07;11.80;;;;;;;;;;5051734;28;20191;-59
2023/04/28 01:29:08;;;;;;;18.33;11.90;;;;;;;;;;5052396;28;20119;-59
2023/04/28 01:31:34;;;;;;;18.63;12.30;;;;;;;;;;5065616;28;20082;-59
2023/04/28 01:34:00;;;;;;;17.23;10.83;;;;;;;;;;5061119;28;20077;-59
2023/04/28 01:36:27;;;;;;;19.07;11.43;;;;;;;;;;5069665;28;20118;-62
2023/04/28 01:38:53;;;;;;;17.47;11.13;;;;;;;;;;5071707;28;20041;-61
2023/04/28 01:41:20;;;;;;;16.90;11.20;;;;;;;;;;5072441;28;20040;-59
2023/04/28 01:43:46;;;;;;;17.47;9.97;;;;;;;;;;5072223;28;20051;-60
2023/04/28 01:46:12;;;;;;;16.63;10.97;;;;;;;;;;5062549;28;20052;-59
2023/04/28 01:48:38;;;;;;;17.20;10.53;;;;;;;;;;5071973;28;20040;-59
2023/04/28 01:51:04;;;;;;;14.50;10.20;;;;;;;;;;5071817;28;20220;-59
2023/04/28 01:53:30;;;;;;;16.10;11.00;;;;;;;;;;5072075;28;20278;-59
2023/04/28 01:55:57;;;;;;;15.40;10.40;;;;;;;;;;5070873;28;20055;-60
2023/04/28 01:58:23;;;;;;;16.13;9.57;;;;;;;;;;5071815;28;20498;-59
2023/04/28 02:00:49;;;;;;;18.83;10.30;;;;;;;;;;5055961;28;20037;-59
2023/04/28 02:03:15;;;;;;;14.80;10.43;;;;;;;;;;5051675;28;20052;-59
2023/04/28 02:05:41;;;;;;;16.80;10.50;;;;;;;;;;5052059;28;20135;-60
2023/04/28 02:08:07;;;;;;;15.07;10.10;;;;;;;;;;5052169;28;20195;-60
2023/04/28 02:10:33;;;;;;;17.17;10.30;;;;;;;;;;5051748;28;20055;-61
2023/04/28 02:12:59;;;;;;;14.47;9.70;;;;;;;;;;5051872;28;20475;-59
2023/04/28 02:15:25;;;;;;;15.27;11.20;;;;;;;;;;5052106;28;20392;-59
2023/04/28 02:17:52;;;;;;;15.87;9.63;;;;;;;;;;5051407;28;20048;-59
2023/04/28 02:20:18;;;;;;;14.17;9.60;;;;;;;;;;5051624;28;20151;-59
2023/04/28 02:22:44;;;;;;;16.07;9.77;;;;;;;;;;5051460;28;20570;-59
2023/04/28 02:25:11;;;;;;;22.80;9.70;;;;;;;;;;5051452;28;20041;-59
2023/04/28 02:27:37;;;;;;;16.90;10.23;;;;;;;;;;5053677;28;20037;-59
2023/04/28 02:30:06;;;;;;;14.33;9.50;;;;;;;;;;5070934;28;20061;-59
2023/04/28 02:32:32;;;;;;;15.87;10.03;;;;;;;;;;5071116;28;20490;-59
2023/04/28 02:34:58;;;;;;;19.20;10.87;;;;;;;;;;5071331;28;20052;-59
2023/04/28 02:37:25;;;;;;;14.27;10.30;;;;;;;;;;5071125;28;20083;-60
2023/04/28 02:39:51;;;;;;;15.83;9.27;;;;;;;;;;5070714;28;20131;-62
2023/04/28 02:42:17;;;;;;;17.63;10.83;;;;;;;;;;5068939;28;20043;-61
2023/04/28 02:44:43;;;;;;;14.53;10.50;;;;;;;;;;5068613;28;20052;-62
2023/04/28 02:47:09;;;;;;;17.77;10.80;;;;;;;;;;5059146;28;20102;-62
2023/04/28 02:49:35;;;;;;;15.63;10.77;;;;;;;;;;5069962;28;20040;-61
2023/04/28 02:52:01;;;;;;;19.97;11.03;;;;;;;;;;5071012;28;20041;-62
2023/04/28 02:54:27;;;;;;;16.57;10.93;;;;;;;;;;5071026;28;20154;-60
2023/04/28 02:56:57;;;;;;;15.97;10.10;;;;;;;;;;5070327;28;20033;-61
2023/04/28 02:59:23;;;;;;;18.07;10.47;;;;;;;;;;5070976;28;20087;-62
2023/04/28 03:01:50;;;;;;;15.87;10.50;;;;;;;;;;5070553;28;20044;-62
2023/04/28 03:04:16;;;;;;;16.83;10.47;;;;;;;;;;5070853;28;20044;-62
2023/04/28 03:06:43;;;;;;;16.60;11.27;;;;;;;;;;5070824;28;20070;-60
2023/04/28 03:09:10;;;;;;;15.37;9.57;;;;;;;;;;5070674;28;20079;-60
2023/04/28 03:11:36;;;;;;;15.10;10.20;;;;;;;;;;5065500;28;20099;-61
2023/04/28 03:14:02;;;;;;;19.87;11.23;;;;;;;;;;5054804;28;20040;-59
2023/04/28 03:16:28;;;;;;;14.17;10.33;;;;;;;;;;5070638;28;20040;-60
2023/04/28 03:18:54;;;;;;;19.10;11.27;;;;;;;;;;5070571;28;20048;-59
2023/04/28 03:21:20;;;;;;;18.00;11.30;;;;;;;;;;5070127;28;20044;-61
2023/04/28 03:23:46;;;;;;;20.57;11.63;;;;;;;;;;5070527;28;20080;-60
2023/04/28 03:26:12;;;;;;;18.57;10.13;;;;;;;;;;5066249;28;20507;-60
2023/04/28 03:28:38;;;;;;;16.20;10.97;;;;;;;;;;5050554;28;20064;-60
2023/04/28 03:31:04;;;;;;;19.47;10.90;;;;;;;;;;5049825;28;20533;-60
2023/04/28 03:33:30;;;;;;;19.77;11.20;;;;;;;;;;5049975;28;20090;-60
2023/04/28 03:35:56;;;;;;;17.43;11.27;;;;;;;;;;5050053;28;20128;-60
2023/04/28 03:38:22;;;;;;;20.20;10.97;;;;;;;;;;5050160;28;20041;-60
2023/04/28 03:40:48;;;;;;;16.80;11.53;;;;;;;;;;5063711;28;20460;-60
2023/04/28 03:43:15;;;;;;;15.57;10.80;;;;;;;;;;5060577;28;20136;-60
2023/04/28 03:45:41;;;;;;;17.30;10.50;;;;;;;;;;5065357;28;20509;-60
2023/04/28 03:48:07;;;;;;;17.83;10.40;;;;;;;;;;5069356;28;20072;-60
2023/04/28 03:50:33;;;;;;;20.40;11.20;;;;;;;;;;5069823;28;20053;-60
2023/04/28 03:52:59;;;;;;;18.93;10.07;;;;;;;;;;5069867;28;20107;-60
2023/04/28 03:55:26;;;;;;;17.80;11.50;;;;;;;;;;5057021;28;20068;-59
2023/04/28 03:57:52;;;;;;;17.70;11.60;;;;;;;;;;5049721;28;20479;-60
2023/04/28 04:00:18;;;;;;;16.87;10.80;;;;;;;;;;5049644;28;20049;-60
2023/04/28 04:02:44;;;;;;;18.50;11.57;;;;;;;;;;5049695;28;20506;-60
2023/04/28 04:05:10;;;;;;;19.17;11.10;;;;;;;;;;5049410;28;20060;-60
2023/04/28 04:07:36;;;;;;;16.77;11.27;;;;;;;;;;5049672;28;20047;-60
2023/04/28 04:10:02;;;;;;;14.17;10.43;;;;;;;;;;5049030;28;20191;-60
2023/04/28 04:12:28;;;;;;;16.27;10.93;;;;;;;;;;5049451;28;20076;-59
2023/04/28 04:14:54;;;;;;;19.60;11.80;;;;;;;;;;5049395;28;20045;-60
2023/04/28 04:17:20;;;;;;;17.80;11.73;;;;;;;;;;5049561;28;20048;-59
2023/04/28 04:19:46;;;;;;;16.70;11.57;;;;;;;;;;5048902;28;20052;-60
2023/04/28 04:22:12;;;;;;;20.93;11.10;;;;;;;;;;5048266;28;20049;-60
2023/04/28 04:24:38;;;;;;;16.53;11.53;;;;;;;;;;5058009;28;20399;-61
2023/04/28 04:27:05;;;;;;;18.20;11.10;;;;;;;;;;5056213;28;20569;-61
2023/04/28 04:29:31;;;;;;;14.97;11.03;;;;;;;;;;5057701;28;20139;-60
2023/04/28 04:31:57;;;;;;;16.27;11.23;;;;;;;;;;5057645;28;20102;-61
2023/04/28 04:34:23;;;;;;;17.97;10.90;;;;;;;;;;5059095;28;20049;-62
2023/04/28 04:36:49;;;;;;;14.17;10.30;;;;;;;;;;5059266;28;20037;-59
2023/04/28 04:39:15;;;;;;;17.67;10.67;;;;;;;;;;5054416;28;20048;-59
2023/04/28 04:41:41;;;;;;;18.57;10.83;;;;;;;;;;5067270;28;20048;-60
2023/04/28 04:44:07;;;;;;;19.67;11.40;;;;;;;;;;5068559;28;20053;-61
2023/04/28 04:46:33;;;;;;;17.63;10.27;;;;;;;;;;5068681;28;20055;-61
2023/04/28 04:48:59;;;;;;;16.60;10.40;;;;;;;;;;5068025;28;20044;-61
2023/04/28 04:51:25;;;;;;;19.07;9.77;;;;;;;;;;5065254;28;20044;-61
2023/04/28 04:53:51;;;;;;;17.20;9.97;;;;;;;;;;5053390;28;20549;-61
2023/04/28 04:56:17;;;;;;;15.87;10.50;;;;;;;;;;5068196;28;20049;-61
2023/04/28 04:58:43;;;;;;;17.17;10.83;;;;;;;;;;5049656;28;20107;-61
2023/04/28 05:01:09;;;;;;;16.63;10.20;;;;;;;;;;5047667;28;20128;-61
2023/04/28 05:03:35;;;;;;;17.17;10.97;;;;;;;;;;5047199;28;20093;-61
2023/04/28 05:06:02;;;;;;;14.10;10.07;;;;;;;;;;5047881;28;20045;-62
2023/04/28 05:08:28;;;;;;;16.83;10.17;;;;;;;;;;5067948;28;20051;-61
2023/04/28 05:10:54;;;;;;;16.60;10.00;;;;;;;;;;5067906;28;20110;-61
2023/04/28 05:13:20;;;;;;;19.77;10.53;;;;;;;;;;5068303;28;20041;-61
2023/04/28 05:15:46;;;;;;;15.00;10.80;;;;;;;;;;5066821;28;20564;-60
2023/04/28 05:18:12;;;;;;;16.40;10.03;;;;;;;;;;5068123;28;20091;-60
2023/04/28 05:20:39;;;;;;;14.67;10.00;;;;;;;;;;5064060;28;20111;-61
2023/04/28 05:23:05;;;;;;;14.00;9.33;;;;;;;;;;5048271;28;20044;-61
2023/04/28 05:25:31;;;;;;;17.07;10.37;;;;;;;;;;5048655;28;20879;-60
2023/04/28 05:27:58;;;;;;;15.77;10.50;;;;;;;;;;5048115;28;20037;-61
2023/04/28 05:30:24;;;;;;;14.53;9.70;;;;;;;;;;5051478;28;20068;-62
2023/04/28 05:32:50;;;;;;;17.20;10.27;;;;;;;;;;5047571;28;20055;-61
2023/04/28 05:35:16;;;;;;;13.37;9.80;;;;;;;;;;5048265;28;20123;-62
2023/04/28 05:37:43;;;;;;;16.47;10.13;;;;;;;;;;5060559;28;20394;-62
2023/04/28 05:40:10;;;;;;;19.57;11.17;;;;;;;;;;5048376;28;20049;-62
2023/04/28 05:42:36;;;;;;;15.07;9.57;;;;;;;;;;5048116;28;20091;-61
2023/04/28 05:45:02;;;;;;;13.33;10.13;;;;;;;;;;5047650;28;20174;-61
2023/04/28 05:47:29;;;;;;;14.60;9.03;;;;;;;;;;5048384;28;20127;-61
2023/04/28 05:49:55;;;;;;;16.07;10.47;;;;;;;;;;5047939;28;20403;-61
2023/04/28 05:52:21;;;;;;;21.17;10.17;;;;;;;;;;5047602;28;20124;-61
2023/04/28 05:54:47;;;;;;;17.07;9.93;;;;;;;;;;5048104;28;20044;-61
2023/04/28 05:57:13;;;;;;;13.37;8.77;;;;;;;;;;5047912;28;20044;-61
2023/04/28 05:59:39;;;;;;;13.50;8.90;;;;;;;;;;5047769;28;20085;-61
2023/04/28 06:02:05;;;;;;;13.60;9.23;;;;;;;;;;5047855;28;20534;-61
2023/04/28 06:04:31;;;;;;;15.27;8.83;;;;;;;;;;5048138;28;20048;-61
2023/04/28 06:06:57;;;;;;;16.60;8.50;;;;;;;;;;5060261;28;20033;-61
2023/04/28 06:09:23;;;;;;;12.33;8.07;;;;;;;;;;5055285;28;20045;-61
2023/04/28 06:11:49;;;;;;;13.33;7.80;;;;;;;;;;5057454;28;20336;-61
2023/04/28 06:14:16;;;;;;;15.53;8.70;;;;;;;;;;5061249;28;20056;-62
2023/04/28 06:16:42;;;;;;;13.60;7.87;;;;;;;;;;5058224;28;20560;-61
2023/04/28 06:19:08;;;;;;;17.90;8.50;;;;;;;;;;5055099;28;20482;-61
2023/04/28 06:21:34;;;;;;;14.33;8.53;;;;;;;;;;5055817;28;20075;-61
2023/04/28 06:24:00;;;;;;;15.00;8.77;;;;;;;;;;5054170;28;20397;-62
2023/04/28 06:26:26;;;;;;;12.77;8.37;;;;;;;;;;5059672;28;20065;-62
2023/04/28 06:28:53;;;;;;;15.80;8.23;;;;;;;;;;5056691;28;20049;-61
2023/04/28 06:31:19;;;;;;;11.43;7.53;;;;;;;;;;5063792;28;20071;-63
2023/04/28 06:33:45;;;;;;;13.13;7.80;;;;;;;;;;5064356;28;20055;-64
2023/04/28 06:36:16;;;;;;;14.17;8.27;;;;;;;;;;5060136;28;20053;-62
2023/04/28 06:38:42;;;;;;;12.80;7.80;;;;;;;;;;5058271;28;20043;-62
2023/04/28 06:41:09;;;;;;;13.77;8.50;;;;;;;;;;5059139;28;20049;-62
2023/04/28 06:43:35;;;;;;;10.93;7.37;;;;;;;;;;5056082;28;20052;-62
2023/04/28 06:46:01;;;;;;;13.00;8.10;;;;;;;;;;5050769;28;20052;-62
2023/04/28 06:48:28;;;;;;;11.97;7.60;;;;;;;;;;5053010;28;20145;-61
2023/04/28 06:50:54;;;;;;;15.83;8.13;;;;;;;;;;5051998;28;20450;-61
2023/04/28 06:53:20;;;;;;;13.63;8.63;;;;;;;;;;5054826;28;20041;-60
2023/04/28 06:55:46;;;;;;;11.13;7.63;;;;;;;;;;5057346;28;20566;-61
2023/04/28 06:58:12;;;;;;;13.53;8.50;;;;;;;;;;5054475;28;20047;-60
2023/04/28 07:00:38;;;;;;;11.80;7.83;;;;;;;;;;5056705;28;20036;-60
2023/04/28 07:03:04;;;;;;;14.37;7.47;;;;;;;;;;5058635;28;20407;-61
2023/04/28 07:05:32;;;;;;;9.93;7.17;;;;;;;;;;5060450;28;20080;-61
2023/04/28 07:07:58;;;;;;;9.37;7.33;;;;;;;;;;5060121;28;20045;-61
2023/04/28 07:10:24;;;;;;;12.07;7.80;;;;;;;;;;5056833;28;20048;-61
2023/04/28 07:12:51;;;;;;;12.70;7.53;;;;;;;;;;5056351;28;20052;-61
2023/04/28 07:15:17;;;;;;;12.57;7.70;;;;;;;;;;5059079;28;20059;-61
2023/04/28 07:17:43;;;;;;;13.10;8.50;;;;;;;;;;5060195;28;20124;-62
2023/04/28 07:20:09;;;;;;;12.77;7.60;;;;;;;;;;5056539;28;20132;-62
2023/04/28 07:22:35;;;;;;;15.10;8.10;;;;;;;;;;5058025;28;20060;-61
2023/04/28 07:25:01;;;;;;;10.70;6.83;;;;;;;;;;5057350;28;20511;-61
2023/04/28 07:27:27;;;;;;;10.13;7.37;;;;;;;;;;5058545;28;20041;-61
2023/04/28 07:29:53;;;;;;;12.70;7.83;;;;;;;;;;5059032;28;20106;-61
2023/04/28 07:32:19;;;;;;;9.40;7.13;;;;;;;;;;5056214;28;20399;-62
2023/04/28 07:34:45;;;;;;;12.93;6.90;;;;;;;;;;5059450;28;20074;-61
2023/04/28 07:37:11;;;;;;;11.77;6.57;;;;;;;;;;5054309;28;20518;-61
2023/04/28 07:39:39;;;;;;;12.60;8.10;;;;;;;;;;5057022;28;20048;-61
2023/04/28 07:42:05;;;;;;;10.93;6.63;;;;;;;;;;5059106;28;20057;-61
2023/04/28 07:44:32;;;;;;;9.63;6.70;;;;;;;;;;5058542;28;20044;-61
2023/04/28 07:47:00;;;;;;;10.13;7.23;;;;;;;;;;5058666;28;20060;-61
2023/04/28 07:49:28;;;;;;;10.23;7.03;;;;;;;;;;5052958;28;20384;-61
2023/04/28 07:51:55;;;;;;;11.30;7.10;;;;;;;;;;5066917;28;20466;-61
2023/04/28 07:54:21;;;;;;;11.17;6.70;;;;;;;;;;5060314;28;20102;-61
2023/04/28 07:56:47;;;;;;;11.20;7.10;;;;;;;;;;5061329;28;20044;-61
2023/04/28 07:59:14;;;;;;;11.33;7.73;;;;;;;;;;5069207;28;20138;-61
2023/04/28 08:01:40;;;;;;;12.90;6.70;;;;;;;;;;5069749;28;20041;-61
2023/04/28 08:04:06;;;;;;;11.13;7.63;;;;;;;;;;5069415;28;20119;-61
2023/04/28 08:06:32;;;;;;;8.93;6.80;;;;;;;;;;5069451;28;20522;-61
2023/04/28 08:08:58;;;;;;;11.77;7.37;;;;;;;;;;5059854;28;20041;-61
2023/04/28 08:11:25;;;;;;;11.30;6.43;;;;;;;;;;5058044;28;20384;-61
2023/04/28 08:13:51;;;;;;;10.00;6.67;;;;;;;;;;5056778;28;20194;-61
2023/04/28 08:16:18;;;;;;;14.27;6.70;;;;;;;;;;5058576;28;20036;-61
2023/04/28 08:18:44;;;;;;;12.60;7.13;;;;;;;;;;5057324;28;20495;-62
2023/04/28 08:21:11;;;;;;;11.30;7.50;;;;;;;;;;5056735;28;20438;-63
2023/04/28 08:23:36;;;;;;;14.70;6.70;;;;;;;;;;5057536;28;20098;-61
2023/04/28 08:26:03;;;;;;;9.90;7.53;;;;;;;;;;5057655;28;20049;-62
2023/04/28 08:28:30;;;;;;;10.53;7.40;;;;;;;;;;5053674;28;20404;-62
2023/04/28 08:30:57;;;;;;;10.33;6.67;;;;;;;;;;5056286;28;20044;-62
2023/04/28 08:33:23;;;;;;;11.13;6.90;;;;;;;;;;5056439;28;20118;-63
2023/04/28 08:35:50;;;;;;;16.73;8.47;;;;;;;;;;5055563;28;20037;-61
2023/04/28 08:38:17;;;;;;;9.00;7.20;;;;;;;;;;5057206;28;20040;-61
2023/04/28 08:40:43;;;;;;;11.30;6.77;;;;;;;;;;5053762;28;20047;-62
2023/04/28 08:43:10;;;;;;;11.13;6.43;;;;;;;;;;5056132;28;20036;-62
2023/04/28 08:45:41;;;;;;;8.80;6.10;;;;;;;;;;5052160;28;20045;-62
2023/04/28 08:48:13;;;;;;;9.93;7.33;;;;;;;;;;5061453;28;20085;-62
2023/04/28 08:50:40;;;;;;;8.93;6.70;;;;;;;;;;5058839;28;20408;-61
2023/04/28 08:53:06;;;;;;;13.83;7.40;;;;;;;;;;5063412;28;20049;-61
2023/04/28 08:55:33;;;;;;;11.13;7.07;;;;;;;;;;5067985;28;20041;-62
2023/04/28 08:58:00;;;;;;;10.30;6.87;;;;;;;;;;5067901;28;20040;-61
2023/04/28 09:00:27;;;;;;;9.80;6.97;;;;;;;;;;5063178;28;20040;-61
2023/04/28 09:02:53;;;;;;;13.13;6.67;;;;;;;;;;5067480;28;20048;-61
2023/04/28 09:05:19;;;;;;;13.17;8.20;;;;;;;;;;5067867;28;20560;-60
2023/04/28 09:07:47;;;;;;;13.40;7.10;;;;;;;;;;5058065;28;20107;-61
2023/04/28 09:10:21;;;;;;;9.57;7.00;;;;;;;;;;5046877;28;20048;-61
2023/04/28 09:12:48;;;;;;;13.37;6.97;;;;;;;;;;5048181;28;20041;-61
2023/04/28 09:15:25;;;;;;;9.17;6.37;;;;;;;;;;5046862;28;20041;-62
2023/04/28 09:17:51;;;;;;;11.93;8.00;;;;;;;;;;5047581;28;20049;-61
2023/04/28 09:20:24;;;;;;;12.23;7.27;;;;;;;;;;5057156;28;20048;-61
2023/04/28 09:22:51;;;;;;;10.65;6.15;;;;;;;;;;5048092;28;20048;-62
2023/04/28 09:25:18;;;;;;;13.00;7.40;;;;;;;;;;5045137;28;20140;-61
2023/04/28 09:27:44;;;;;;;10.87;6.70;;;;;;;;;;5045027;28;20068;-62
2023/04/28 09:30:10;;;;;;;9.20;6.53;;;;;;;;;;5044829;28;20049;-62
2023/04/28 09:32:36;;;;;;;11.00;7.00;;;;;;;;;;5044514;28;20107;-62
2023/04/28 09:35:03;;;;;;;10.33;6.30;;;;;;;;;;5044731;28;20045;-62
2023/04/28 09:37:30;;;;;;;12.33;6.73;;;;;;;;;;5045474;28;20045;-61
2023/04/28 09:39:57;;;;;;;10.40;6.63;;;;;;;;;;5046781;28;20419;-62
2023/04/28 09:42:35;;;;;;;8.13;6.07;;;;;;;;;;5047885;28;20081;-59
2023/04/28 09:45:02;;;;;;;10.70;7.57;;;;;;;;;;5047264;28;20077;-59
2023/04/28 09:47:31;;;;;;;13.60;7.13;;;;;;;;;;5049386;28;20061;-61
2023/04/28 09:49:58;;;;;;;8.57;6.27;;;;;;;;;;5058277;28;20855;-60
2023/04/28 09:52:25;;;;;;;9.03;6.30;;;;;;;;;;5071320;28;20045;-60
2023/04/28 09:54:52;;;;;;;9.07;6.70;;;;;;;;;;5071530;28;20041;-60
2023/04/28 09:57:18;;;;;;;13.40;6.80;;;;;;;;;;5071541;28;20054;-60
2023/04/28 09:59:48;;;;;;;9.27;6.97;;;;;;;;;;5071632;28;20525;-60
2023/04/28 10:02:15;;;;;;;8.07;6.13;;;;;;;;;;5069380;28;20049;-60
2023/04/28 10:04:45;;;;;;;9.47;6.23;;;;;;;;;;5051251;28;20056;-60
2023/04/28 10:07:20;;;;;;;7.23;5.10;;;;;;;;;;5051430;28;20053;-61
2023/04/28 10:09:50;;;;;;;11.57;6.77;;;;;;;;;;5051286;28;20155;-60
2023/04/28 10:12:16;;;;;;;9.40;6.20;;;;;;;;;;5050366;28;20045;-61
2023/04/28 10:14:43;;;;;;;9.80;6.43;;;;;;;;;;5050534;28;20064;-60
2023/04/28 10:17:10;;;;;;;7.80;6.13;;;;;;;;;;5051422;28;20399;-60
2023/04/28 10:19:37;;;;;;;11.00;6.63;;;;;;;;;;5051274;28;20056;-60
2023/04/28 10:22:03;;;;;;;11.00;6.27;;;;;;;;;;5050913;28;20106;-61
2023/04/28 10:24:30;;;;;;;9.97;6.43;;;;;;;;;;5053706;28;20102;-60
2023/04/28 10:27:07;;;;;;;9.20;6.07;;;;;;;;;;5070700;28;20043;-61
2023/04/28 10:29:33;;;;;;;7.70;6.03;;;;;;;;;;5067774;28;20056;-61
2023/04/28 10:32:14;;;;;;;9.87;5.90;;;;;;;;;;5055141;28;20045;-61
2023/04/28 10:34:40;;;;;;;11.60;6.20;;;;;;;;;;5060451;28;20041;-60
2023/04/28 10:37:06;;;;;;;10.13;6.70;;;;;;;;;;5061916;28;20051;-60
2023/04/28 10:39:32;;;;;;;6.90;5.80;;;;;;;;;;5059845;28;20037;-60
2023/04/28 10:41:58;;;;;;;10.43;5.90;;;;;;;;;;5059061;28;20085;-61
2023/04/28 10:44:24;;;;;;;10.30;5.77;;;;;;;;;;5057545;28;20041;-61
2023/04/28 10:47:08;;;;;;;11.50;6.23;;;;;;;;;;5063131;28;20055;-62
2023/04/28 10:49:53;;;;;;;9.23;6.07;;;;;;;;;;5061767;28;20429;-60
2023/04/28 10:52:37;;;;;;;10.27;5.83;;;;;;;;;;5061304;28;20118;-62
2023/04/28 10:55:22;;;;;;;11.33;6.63;;;;;;;;;;5063048;28;20498;-61
2023/04/28 10:58:08;;;;;;;7.63;5.53;;;;;;;;;;5059582;28;20499;-61
2023/04/28 11:00:34;;;;;;;7.80;5.00;;;;;;;;;;5059402;28;20533;-61
2023/04/28 11:03:00;;;;;;;8.20;5.80;;;;;;;;;;5055004;28;20049;-61
2023/04/28 11:05:27;;;;;;;9.50;6.23;;;;;;;;;;5058091;28;20102;-61
2023/04/28 11:08:16;;;;;;;10.50;5.70;;;;;;;;;;5059284;28;20157;-61
2023/04/28 11:11:01;;;;;;;10.10;5.80;;;;;;;;;;5056709;28;20041;-61
2023/04/28 11:13:33;;;;;;;7.03;5.37;;;;;;;;;;5059254;28;20049;-61
2023/04/28 11:16:03;;;;;;;10.23;6.37;;;;;;;;;;5058828;28;20165;-62
2023/04/28 11:18:29;;;;;;;8.27;5.10;;;;;;;;;;5060955;28;20546;-61
2023/04/28 11:20:57;;;;;;;8.03;5.40;;;;;;;;;;5061603;28;20189;-61
2023/04/28 11:23:24;;;;;;;9.97;5.77;;;;;;;;;;5056326;28;20041;-60
2023/04/28 11:25:54;;;;;;;8.43;5.50;;;;;;;;;;5055491;28;20528;-61
2023/04/28 11:28:20;;;;;;;10.67;5.87;;;;;;;;;;5058752;28;20048;-61
2023/04/28 11:30:46;;;;;;;10.43;6.50;;;;;;;;;;5057330;28;20456;-61
2023/04/28 11:33:13;;;;;;;9.03;6.53;;;;;;;;;;5057050;28;20045;-61
2023/04/28 11:35:42;;;;;;;12.67;7.87;;;;;;;;;;5056298;28;20041;-60
2023/04/28 11:38:08;;;;;;;11.47;7.63;;;;;;;;;;5057740;28;20048;-60
2023/04/28 11:40:34;;;;;;;16.00;8.57;;;;;;;;;;5058867;28;20052;-62
2023/04/28 11:43:02;;;;;;;11.37;8.40;;;;;;;;;;5059080;28;20507;-61
2023/04/28 11:45:29;;;;;;;13.90;10.10;;;;;;;;;;5055515;28;20056;-62
2023/04/28 11:47:55;;;;;;;17.03;13.47;;;;;;;;;;5059151;28;20704;-60
2023/04/28 11:50:37;;;;;;;19.07;13.93;;;;;;;;;;5063644;28;20056;-61
2023/04/28 11:53:03;;;;;;;19.17;15.23;;;;;;;;;;5060645;28;20080;-61
2023/04/28 11:55:29;;;;;;;26.33;19.77;;;;;;;;;;5059042;28;20067;-61
2023/04/28 11:58:14;;;;;;;28.47;21.43;;;;;;;;;;5060673;28;20044;-60
2023/04/28 12:00:40;;;;;;;27.87;20.97;;;;;;;;;;5060133;28;20525;-59
2023/04/28 12:03:07;;;;;;;28.07;20.63;;;;;;;;;;5060696;28;20040;-62
2023/04/28 12:05:34;;;;;;;26.27;22.20;;;;;;;;;;5055861;28;20043;-59
2023/04/28 12:08:01;;;;;;;31.07;24.10;;;;;;;;;;5059502;28;20543;-59
2023/04/28 12:10:27;;;;;;;33.60;25.57;;;;;;;;;;5062630;28;20449;-59
2023/04/28 12:12:53;;;;;;;35.87;25.93;;;;;;;;;;5068933;28;20037;-59
2023/04/28 12:15:19;;;;;;;37.10;27.07;;;;;;;;;;5069173;28;20044;-59
2023/04/28 12:17:46;;;;;;;31.10;26.00;;;;;;;;;;5059966;28;20388;-60
2023/04/28 12:20:32;;;;;;;31.03;26.03;;;;;;;;;;5060244;28;20127;-60
2023/04/28 12:22:58;;;;;;;30.67;24.53;;;;;;;;;;5056581;28;20044;-61
2023/04/28 12:25:24;;;;;;;32.90;26.27;;;;;;;;;;5061178;28;20041;-60
2023/04/28 12:28:04;;;;;;;34.73;27.47;;;;;;;;;;5056819;28;20045;-60
2023/04/28 12:30:32;;;;;;;33.13;27.40;;;;;;;;;;5059631;28;20059;-60
2023/04/28 12:32:58;;;;;;;34.87;28.80;;;;;;;;;;5058765;28;20074;-59
2023/04/28 12:35:25;;;;;;;41.23;30.07;;;;;;;;;;5059423;28;20235;-59
2023/04/28 12:37:52;;;;;;;34.50;28.23;;;;;;;;;;5059552;28;20041;-60
2023/04/28 12:40:18;;;;;;;33.67;28.50;;;;;;;;;;5058290;28;20048;-60
2023/04/28 12:42:45;;;;;;;39.33;30.47;;;;;;;;;;5057394;28;20047;-59
2023/04/28 12:45:11;;;;;;;36.53;30.43;;;;;;;;;;5060274;28;20276;-61
2023/04/28 12:47:38;;;;;;;42.27;32.07;;;;;;;;;;5055008;28;20059;-61
2023/04/28 12:50:05;;;;;;;40.30;33.57;;;;;;;;;;5057506;28;20048;-60
2023/04/28 12:52:32;;;;;;;42.57;34.00;;;;;;;;;;5057670;28;20048;-59
2023/04/28 12:54:59;;;;;;;38.80;32.60;;;;;;;;;;5056420;28;20041;-60
2023/04/28 12:57:25;;;;;;;38.27;32.80;;;;;;;;;;5057578;28;20037;-60
2023/04/28 12:59:52;;;;;;;40.03;34.37;;;;;;;;;;5057947;28;20116;-60
2023/04/28 13:02:18;;;;;;;44.37;35.40;;;;;;;;;;5055802;28;20067;-60
2023/04/28 13:04:45;;;;;;;45.60;35.90;;;;;;;;;;5060802;28;20049;-59
2023/04/28 13:07:14;;;;;;;49.40;37.97;;;;;;;;;;5052770;28;20053;-60
2023/04/28 13:09:41;;;;;;;55.67;40.97;;;;;;;;;;5057222;28;20357;-60
2023/04/28 13:12:07;;;;;;;51.53;40.47;;;;;;;;;;5053139;28;20057;-62
2023/04/28 13:14:33;;;;;;;57.00;42.50;;;;;;;;;;5060785;28;20040;-61
2023/04/28 13:17:01;;;;;;;51.60;40.20;;;;;;;;;;5051593;28;20060;-61
2023/04/28 13:19:29;;;;;;;51.20;40.97;;;;;;;;;;5059767;28;20370;-61
2023/04/28 13:21:55;;;;;;;55.73;43.23;;;;;;;;;;5060155;28;20502;-59
2023/04/28 13:24:21;;;;;;;52.03;42.97;;;;;;;;;;5059913;28;20487;-59
2023/04/28 13:26:47;;;;;;;54.03;43.37;;;;;;;;;;5059317;28;20037;-59
2023/04/28 13:29:13;;;;;;;54.03;42.53;;;;;;;;;;5057805;28;20080;-60
2023/04/28 13:31:39;;;;;;;55.33;43.33;;;;;;;;;;5058585;28;20049;-59
2023/04/28 13:34:06;;;;;;;53.70;44.30;;;;;;;;;;5058981;28;20105;-60
2023/04/28 13:36:33;;;;;;;52.30;43.50;;;;;;;;;;5060500;28;20052;-60
2023/04/28 13:38:59;;;;;;;53.97;44.20;;;;;;;;;;5057787;28;20467;-60
2023/04/28 13:41:26;;;;;;;52.63;41.77;;;;;;;;;;5059727;28;20486;-60
2023/04/28 13:43:52;;;;;;;49.70;41.27;;;;;;;;;;5059100;28;20076;-60
2023/04/28 13:46:19;;;;;;;52.63;44.53;;;;;;;;;;5057637;28;20053;-60
2023/04/28 13:48:45;;;;;;;47.10;38.30;;;;;;;;;;5062232;28;20052;-59
2023/04/28 13:51:11;;;;;;;44.73;39.23;;;;;;;;;;5063538;28;20055;-60
2023/04/28 13:53:37;;;;;;;51.27;42.30;;;;;;;;;;5071787;28;20044;-60
2023/04/28 13:56:07;;;;;;;50.20;41.83;;;;;;;;;;5070906;28;20045;-59
2023/04/28 13:58:33;;;;;;;58.90;46.73;;;;;;;;;;5057429;28;20040;-59
2023/04/28 14:01:00;;;;;;;64.50;46.63;;;;;;;;;;5071419;28;20041;-60
2023/04/28 14:03:26;;;;;;;72.90;48.87;;;;;;;;;;5071690;28;20102;-61
2023/04/28 14:05:53;;;;;;;86.47;53.03;;;;;;;;;;5058811;28;20048;-60
2023/04/28 14:08:20;;;;;;;86.00;51.67;;;;;;;;;;5062349;28;20040;-61
2023/04/28 14:10:46;;;;;;;72.03;48.47;;;;;;;;;;5063487;28;20040;-60
2023/04/28 14:13:13;;;;;;;94.07;54.33;;;;;;;;;;5062971;28;20056;-61
2023/04/28 14:15:40;;;;;;;80.40;49.83;;;;;;;;;;5063795;28;20047;-62
2023/04/28 14:18:07;;;;;;;72.40;49.03;;;;;;;;;;5071219;28;20156;-61
2023/04/28 14:20:33;;;;;;;73.67;47.47;;;;;;;;;;5070719;28;20181;-61
2023/04/28 14:23:00;;;;;;;74.73;48.33;;;;;;;;;;5062857;28;20033;-61